Time;durP1;ratioP1;P1;durP2;ratioP2;P2;SDS_P1;SDS_P2;PMS_P1;PMS_P2;Temp;Humidity;BMP_temperature;BMP_pressure;BME280_temperature;BME280_humidity;BME280_pressure;Samples;Min_cycle;Max_cycle;Signal;HPM_P1;HPM_P2
2021/11/26 00:00:02;;;;;;;47.80;27.30;;;;;;;1.82;84.28;95705.52;105300;1311;32616;-87
2021/11/26 00:02:33;;;;;;;44.20;25.70;;;;;;;1.83;84.07;95702.98;105311;1314;29241;-87
2021/11/26 00:05:05;;;;;;;46.80;25.90;;;;;;;1.87;84.07;95700.89;105330;1314;29818;-86
2021/11/26 00:07:35;;;;;;;51.20;29.70;;;;;;;1.80;84.13;95700.53;105293;1309;35088;-87
2021/11/26 00:10:08;;;;;;;47.90;27.80;;;;;;;1.76;84.02;95696.80;105298;1313;30005;-87
2021/11/26 00:12:41;;;;;;;48.00;27.60;;;;;;;1.78;84.10;95692.42;105353;1309;26042;-87
2021/11/26 00:15:19;;;;;;;48.20;29.90;;;;;;;1.85;84.26;95684.45;105332;1310;28953;-87
2021/11/26 00:17:52;;;;;;;51.00;28.00;;;;;;;1.88;84.22;95683.76;105328;1313;29455;-86
2021/11/26 00:20:24;;;;;;;48.00;28.40;;;;;;;1.88;84.46;95683.71;105411;1311;28153;-87
2021/11/26 00:22:55;;;;;;;50.20;27.30;;;;;;;1.89;84.71;95679.79;105332;1312;27791;-88
2021/11/26 00:25:26;;;;;;;43.90;28.10;;;;;;;1.90;84.63;95681.84;105414;1313;28529;-87
2021/11/26 00:27:57;;;;;;;48.40;28.10;;;;;;;1.91;84.80;95680.75;105325;1309;38868;-87
2021/11/26 00:30:28;;;;;;;43.40;27.40;;;;;;;1.94;84.81;95684.38;105287;1309;29584;-87
2021/11/26 00:33:00;;;;;;;48.40;27.30;;;;;;;1.97;84.80;95686.09;105332;1313;29051;-89
2021/11/26 00:35:32;;;;;;;43.90;26.00;;;;;;;2.03;84.89;95692.33;105328;1310;29521;-89
2021/11/26 00:38:03;;;;;;;46.40;27.30;;;;;;;2.06;84.92;95689.99;105315;1314;28477;-86
2021/11/26 00:40:34;;;;;;;43.70;26.00;;;;;;;2.08;84.80;95688.55;105325;1316;30023;-87
2021/11/26 00:43:06;;;;;;;42.30;26.30;;;;;;;2.12;84.91;95680.76;105386;1309;31607;-87
2021/11/26 00:45:37;;;;;;;45.40;27.40;;;;;;;2.17;84.93;95682.41;105327;1309;27235;-88
2021/11/26 00:48:08;;;;;;;44.80;27.50;;;;;;;2.18;85.02;95683.69;105260;1309;31307;-87
2021/11/26 00:50:40;;;;;;;45.60;26.80;;;;;;;2.20;85.07;95684.16;105294;1309;30974;-87
2021/11/26 00:53:11;;;;;;;42.10;24.50;;;;;;;2.20;85.12;95680.88;105312;1314;29908;-87
2021/11/26 00:55:42;;;;;;;43.90;27.20;;;;;;;2.17;84.98;95678.70;105300;1315;29531;-86
2021/11/26 00:58:13;;;;;;;48.80;27.00;;;;;;;2.16;85.06;95673.95;105326;1313;29766;-87
2021/11/26 01:00:44;;;;;;;41.40;25.70;;;;;;;2.20;85.16;95673.34;105241;1316;27557;-87
2021/11/26 01:03:16;;;;;;;42.80;26.60;;;;;;;2.22;85.25;95669.27;105310;1315;25926;-87
2021/11/26 01:05:48;;;;;;;43.80;24.90;;;;;;;2.25;85.19;95666.55;105320;1309;26478;-87
2021/11/26 01:08:20;;;;;;;43.50;24.90;;;;;;;2.28;85.20;95668.30;105286;1310;27917;-86
2021/11/26 01:10:53;;;;;;;45.10;25.70;;;;;;;2.31;85.21;95660.95;105275;1311;28125;-87
2021/11/26 01:13:24;;;;;;;40.50;24.80;;;;;;;2.30;85.23;95662.09;105456;1310;31470;-86
2021/11/26 01:15:56;;;;;;;44.40;25.50;;;;;;;2.32;85.27;95660.48;105393;1309;28023;-87
2021/11/26 01:18:27;;;;;;;47.20;26.60;;;;;;;2.35;85.34;95657.67;105312;1309;25665;-87
2021/11/26 01:20:58;;;;;;;40.10;24.10;;;;;;;2.36;85.41;95655.02;105334;1311;26366;-87
2021/11/26 01:23:29;;;;;;;47.30;26.00;;;;;;;2.38;85.24;95653.14;105314;1309;26106;-86
2021/11/26 01:26:00;;;;;;;44.60;25.50;;;;;;;2.41;85.40;95649.47;105330;1309;28054;-87
2021/11/26 01:28:31;;;;;;;47.70;26.20;;;;;;;2.40;85.30;95641.66;105346;1310;26797;-87
2021/11/26 01:31:02;;;;;;;45.50;25.90;;;;;;;2.43;85.29;95634.27;105309;1309;26918;-87
2021/11/26 01:33:33;;;;;;;43.90;25.60;;;;;;;2.47;85.10;95633.23;105317;1307;27083;-87
2021/11/26 01:36:05;;;;;;;43.20;24.50;;;;;;;2.50;85.21;95631.73;105336;1309;31667;-87
2021/11/26 01:38:36;;;;;;;40.00;24.20;;;;;;;2.52;85.21;95627.46;105301;1311;31179;-87
2021/11/26 01:41:09;;;;;;;43.40;24.80;;;;;;;2.53;85.20;95617.02;105332;1316;27013;-87
2021/11/26 01:43:40;;;;;;;44.20;24.50;;;;;;;2.54;85.14;95616.08;105311;1308;28019;-86
2021/11/26 01:46:11;;;;;;;42.40;24.60;;;;;;;2.53;85.15;95615.69;105326;1312;25803;-87
2021/11/26 01:48:44;;;;;;;40.90;24.00;;;;;;;2.54;85.24;95608.55;105365;1314;28129;-87
2021/11/26 01:51:15;;;;;;;38.50;23.60;;;;;;;2.55;85.16;95605.27;105358;1311;27233;-87
2021/11/26 01:53:46;;;;;;;38.20;23.20;;;;;;;2.55;85.26;95601.70;105347;1311;31478;-87
2021/11/26 01:56:17;;;;;;;40.00;23.40;;;;;;;2.54;85.20;95598.13;105321;1314;27510;-87
2021/11/26 01:58:48;;;;;;;41.60;24.50;;;;;;;2.53;85.07;95594.77;105348;1307;26274;-86
2021/11/26 02:01:20;;;;;;;37.00;22.00;;;;;;;2.52;85.27;95601.83;105320;1313;28328;-87
2021/11/26 02:03:51;;;;;;;41.00;23.20;;;;;;;2.51;85.34;95601.92;105359;1310;28789;-86
2021/11/26 02:06:22;;;;;;;38.90;23.60;;;;;;;2.50;85.32;95607.09;105417;1312;26051;-86
2021/11/26 02:08:53;;;;;;;39.70;22.60;;;;;;;2.48;85.37;95604.00;105378;1311;30016;-87
2021/11/26 02:11:24;;;;;;;41.40;23.70;;;;;;;2.47;85.32;95603.21;105389;1316;27995;-87
2021/11/26 02:13:55;;;;;;;42.70;24.20;;;;;;;2.47;85.36;95607.45;105261;1311;214080;-87
2021/11/26 02:16:26;;;;;;;41.40;23.40;;;;;;;2.45;85.43;95602.98;105365;1309;27573;-86
2021/11/26 02:18:57;;;;;;;43.90;23.90;;;;;;;2.45;85.64;95589.50;105343;1313;29206;-86
2021/11/26 02:21:28;;;;;;;42.00;24.20;;;;;;;2.48;85.68;95592.80;105317;1314;26883;-86
2021/11/26 02:23:59;;;;;;;44.10;24.70;;;;;;;2.51;85.62;95586.17;105266;1313;27973;-87
2021/11/26 02:26:30;;;;;;;43.00;25.10;;;;;;;2.54;85.61;95583.19;105318;1309;28992;-87
2021/11/26 02:29:01;;;;;;;41.90;24.00;;;;;;;2.54;85.81;95578.52;105321;1315;28044;-87
2021/11/26 02:31:32;;;;;;;40.40;23.80;;;;;;;2.54;85.82;95569.21;105359;1310;27174;-87
2021/11/26 02:34:04;;;;;;;40.50;24.10;;;;;;;2.56;85.79;95575.49;105340;1314;27851;-87
2021/11/26 02:36:35;;;;;;;40.40;24.10;;;;;;;2.59;85.77;95569.39;105321;1309;27097;-87
2021/11/26 02:39:09;;;;;;;41.90;24.20;;;;;;;2.60;85.72;95569.49;105320;1310;28922;-87
2021/11/26 02:41:43;;;;;;;40.60;23.10;;;;;;;2.60;85.76;95565.26;105304;1309;27300;-86
2021/11/26 02:44:14;;;;;;;42.10;23.70;;;;;;;2.62;85.84;95556.46;105311;1309;28104;-86
2021/11/26 02:46:46;;;;;;;35.70;22.40;;;;;;;2.63;85.83;95553.70;105313;1311;29681;-87
2021/11/26 02:49:19;;;;;;;36.50;22.10;;;;;;;2.64;85.76;95544.91;105313;1314;27866;-87
2021/11/26 02:51:50;;;;;;;37.80;21.40;;;;;;;2.66;85.74;95544.45;105361;1309;27815;-87
2021/11/26 02:54:21;;;;;;;38.80;22.80;;;;;;;2.66;85.80;95546.48;105343;1310;27242;-87
2021/11/26 02:56:52;;;;;;;39.20;21.30;;;;;;;2.68;85.87;95541.30;105378;1310;26027;-87
2021/11/26 02:59:23;;;;;;;36.50;22.70;;;;;;;2.70;85.75;95537.38;105424;1311;26580;-87
2021/11/26 03:01:54;;;;;;;32.00;20.40;;;;;;;2.67;85.73;95534.31;105374;1309;27843;-86
2021/11/26 03:04:25;;;;;;;48.80;26.20;;;;;;;2.65;85.75;95535.02;105367;1315;27301;-87
2021/11/26 03:07:05;;;;;;;43.10;25.50;;;;;;;2.60;85.89;95527.00;105365;1310;29664;-87
2021/11/26 03:09:37;;;;;;;37.30;24.10;;;;;;;2.57;86.05;95530.98;105281;1310;37391;-87
2021/11/26 03:12:10;;;;;;;41.30;24.40;;;;;;;2.54;86.08;95524.73;105323;1315;29866;-86
2021/11/26 03:14:41;;;;;;;38.30;23.70;;;;;;;2.54;86.10;95515.94;105329;1315;28548;-86
2021/11/26 03:17:12;;;;;;;45.00;24.30;;;;;;;2.57;86.15;95509.48;105303;1309;28687;-87
2021/11/26 03:19:43;;;;;;;45.40;26.30;;;;;;;2.61;86.21;95506.60;105223;1316;32921;-87
2021/11/26 03:22:14;;;;;;;41.20;24.70;;;;;;;2.60;86.22;95502.46;105324;1316;35688;-86
2021/11/26 03:24:45;;;;;;;46.00;26.10;;;;;;;2.58;86.35;95507.48;105292;1309;29749;-87
2021/11/26 03:27:16;;;;;;;40.20;23.20;;;;;;;2.60;86.51;95501.42;105330;1309;27626;-87
2021/11/26 03:29:47;;;;;;;39.80;24.30;;;;;;;2.64;86.53;95502.31;105302;1309;27851;-87
2021/11/26 03:32:18;;;;;;;39.00;22.10;;;;;;;2.66;86.54;95498.77;105364;1309;29137;-87
2021/11/26 03:34:48;;;;;;;38.60;22.80;;;;;;;2.69;86.53;95492.68;105335;1311;35459;-86
2021/11/26 03:37:19;;;;;;;42.60;22.90;;;;;;;2.68;86.57;95490.26;105344;1310;29366;-87
2021/11/26 03:39:50;;;;;;;41.40;23.30;;;;;;;2.67;86.41;95496.63;105330;1309;28727;-87
2021/11/26 03:42:21;;;;;;;39.50;22.60;;;;;;;2.65;86.51;95498.49;105402;1309;28534;-87
2021/11/26 03:44:52;;;;;;;40.80;22.60;;;;;;;2.65;86.52;95493.42;105367;1310;29839;-87
2021/11/26 03:47:25;;;;;;;36.80;21.10;;;;;;;2.67;86.49;95496.95;105394;1310;30223;-86
2021/11/26 03:49:56;;;;;;;36.70;21.40;;;;;;;2.70;86.44;95494.30;105365;1310;36389;-87
2021/11/26 03:52:27;;;;;;;38.10;20.70;;;;;;;2.64;86.23;95488.88;105332;1314;29539;-84
2021/11/26 03:54:58;;;;;;;40.30;23.50;;;;;;;2.59;86.22;95484.05;105329;1310;28938;-86
2021/11/26 03:57:29;;;;;;;35.00;22.00;;;;;;;2.55;86.26;95478.80;105267;1313;34019;-86
2021/11/26 04:00:00;;;;;;;36.70;21.80;;;;;;;2.48;86.21;95475.67;105343;1309;28901;-87
2021/11/26 04:02:31;;;;;;;38.80;23.10;;;;;;;2.41;86.17;95471.09;105346;1309;29125;-86
2021/11/26 04:05:03;;;;;;;39.00;22.90;;;;;;;2.40;86.36;95459.38;105319;1309;26941;-87
2021/11/26 04:07:34;;;;;;;39.20;23.80;;;;;;;2.36;86.36;95457.03;105334;1311;30472;-87
2021/11/26 04:10:07;;;;;;;37.20;23.80;;;;;;;2.34;86.34;95454.89;105298;1309;29567;-87
2021/11/26 04:12:38;;;;;;;44.60;25.90;;;;;;;2.36;86.60;95452.70;105312;1310;29118;-87
2021/11/26 04:15:13;;;;;;;44.30;26.20;;;;;;;2.42;86.61;95446.57;105313;1313;29612;-87
2021/11/26 04:17:48;;;;;;;45.00;25.10;;;;;;;2.45;86.73;95443.07;105313;1310;29922;-87
2021/11/26 04:20:20;;;;;;;42.80;24.80;;;;;;;2.49;86.63;95436.27;105333;1310;32250;-86
2021/11/26 04:22:51;;;;;;;49.90;25.90;;;;;;;2.50;86.61;95434.77;105343;1311;29336;-87
2021/11/26 04:25:23;;;;;;;45.90;26.90;;;;;;;2.50;86.56;95430.00;105346;1309;29356;-87
2021/11/26 04:27:54;;;;;;;42.20;25.60;;;;;;;2.51;86.51;95426.39;105359;1310;29261;-87
2021/11/26 04:30:28;;;;;;;38.40;24.30;;;;;;;2.52;86.51;95426.13;105344;1312;47807;-86
2021/11/26 04:33:03;;;;;;;43.80;24.60;;;;;;;2.51;86.53;95422.41;105317;1309;27786;-87
2021/11/26 04:35:35;;;;;;;45.80;24.80;;;;;;;2.51;86.47;95418.23;105328;1310;28931;-87
2021/11/26 04:38:05;;;;;;;44.40;24.30;;;;;;;2.50;86.53;95415.73;105293;1309;28248;-86
2021/11/26 04:40:37;;;;;;;40.60;23.40;;;;;;;2.49;86.56;95412.16;105327;1313;26818;-86
2021/11/26 04:43:08;;;;;;;44.10;23.00;;;;;;;2.48;86.60;95409.85;105327;1313;28626;-86
2021/11/26 04:45:39;;;;;;;42.10;22.70;;;;;;;2.51;86.69;95405.99;105336;1309;31206;-86
2021/11/26 04:48:11;;;;;;;40.20;21.50;;;;;;;2.55;86.75;95400.95;105313;1309;28911;-86
2021/11/26 04:50:42;;;;;;;39.40;21.70;;;;;;;2.57;86.75;95401.58;105308;1309;30564;-86
2021/11/26 04:53:13;;;;;;;38.60;22.90;;;;;;;2.58;86.71;95397.51;105355;1315;29278;-86
2021/11/26 04:55:44;;;;;;;37.40;23.00;;;;;;;2.61;86.76;95394.47;105360;1309;26991;-86
2021/11/26 04:58:15;;;;;;;32.10;20.40;;;;;;;2.64;86.82;95398.50;105274;1314;39208;-86
